createdAt,value
2022-09-11T00:01:15.889Z,329.63
2022-09-11T00:03:43.993Z,328.23
2022-09-11T00:06:14.276Z,319.63
2022-09-11T00:08:42.266Z,337.27
2022-09-11T00:11:12.386Z,348.17
2022-09-11T00:13:40.455Z,340.57
2022-09-11T00:16:17.941Z,334.70
2022-09-11T00:18:44.727Z,346.05
2022-09-11T00:21:11.304Z,340.48
2022-09-11T00:23:37.862Z,342.38
2022-09-11T00:26:05.081Z,337.00
2022-09-11T00:28:31.649Z,336.30
2022-09-11T00:31:12.613Z,331.53
2022-09-11T00:33:40.175Z,328.45
2022-09-11T00:36:13.209Z,326.80
2022-09-11T00:38:40.306Z,335.77
2022-09-11T00:41:12.614Z,336.52
2022-09-11T00:44:02.669Z,330.88
2022-09-11T00:46:54.661Z,330.15
2022-09-11T00:49:32.569Z,329.80
2022-09-11T00:52:27.281Z,327.45
2022-09-11T00:54:59.879Z,318.83
2022-09-11T00:57:30.422Z,322.58
2022-09-11T00:59:59.448Z,322.47
2022-09-11T01:02:28.322Z,329.10
2022-09-11T01:04:57.246Z,326.23
2022-09-11T01:07:26.521Z,321.53
2022-09-11T01:09:54.160Z,326.13
2022-09-11T01:12:39.093Z,327.83
2022-09-11T01:15:30.206Z,327.45
2022-09-11T01:18:26.877Z,323.15
2022-09-11T01:20:56.018Z,320.77
2022-09-11T01:23:56.627Z,325.50
2022-09-11T01:26:36.884Z,333.40
2022-09-11T01:29:12.424Z,324.20
2022-09-11T01:31:50.022Z,321.70
2022-09-11T01:34:27.077Z,320.08
2022-09-11T01:37:01.027Z,318.55
2022-09-11T01:39:33.785Z,321.03
2022-09-11T01:42:05.925Z,324.95
2022-09-11T01:44:41.630Z,331.90
2022-09-11T01:47:11.861Z,338.85
2022-09-11T01:49:45.740Z,340.55
2022-09-11T01:52:18.512Z,341.25
2022-09-11T01:55:01.305Z,348.40
2022-09-11T01:57:42.742Z,347.23
2022-09-11T02:00:13.442Z,345.40
2022-09-11T02:02:47.247Z,348.45
2022-09-11T02:05:18.407Z,348.90
2022-09-11T02:07:55.950Z,350.35
2022-09-11T02:10:32.898Z,351.60
2022-09-11T02:13:11.394Z,347.13
2022-09-11T02:15:46.304Z,343.48
2022-09-11T02:18:18.798Z,353.23
2022-09-11T02:20:47.530Z,353.25
2022-09-11T02:23:15.551Z,342.10
2022-09-11T02:25:42.215Z,339.83
2022-09-11T02:28:09.935Z,337.10
2022-09-11T02:30:38.565Z,333.40
2022-09-11T02:33:26.374Z,329.95
2022-09-11T02:35:59.527Z,330.42
2022-09-11T02:38:39.932Z,341.80
2022-09-11T02:41:24.008Z,333.58
2022-09-11T02:44:06.997Z,342.08
2022-09-11T02:47:15.195Z,342.35
2022-09-11T02:50:21.990Z,343.33
2022-09-11T02:53:11.617Z,350.88
2022-09-11T02:55:56.604Z,345.02
2022-09-11T02:58:29.672Z,349.13
2022-09-11T03:01:01.750Z,348.27
2022-09-11T03:03:38.534Z,343.50
2022-09-11T03:06:06.243Z,349.67
2022-09-11T03:08:32.866Z,363.42
2022-09-11T03:11:00.106Z,360.73
2022-09-11T03:13:27.028Z,370.17
2022-09-11T03:15:54.061Z,360.20
2022-09-11T03:18:20.627Z,365.67
2022-09-11T03:20:47.329Z,361.58
2022-09-11T03:23:14.441Z,362.10
2022-09-11T03:25:41.348Z,361.50
2022-09-11T03:28:08.959Z,354.10
2022-09-11T03:30:35.684Z,356.27
2022-09-11T03:33:02.377Z,356.23
2022-09-11T03:35:29.146Z,337.05
2022-09-11T03:37:55.738Z,354.40
2022-09-11T03:40:22.417Z,353.90
2022-09-11T03:42:49.068Z,348.67
2022-09-11T03:45:17.216Z,351.15
2022-09-11T03:47:43.800Z,348.45
2022-09-11T03:50:11.551Z,345.60
2022-09-11T03:52:39.555Z,341.80
2022-09-11T03:55:07.025Z,336.73
2022-09-11T03:57:34.109Z,342.75
2022-09-11T04:00:01.528Z,349.90
2022-09-11T04:02:33.733Z,345.57
2022-09-11T04:05:00.393Z,348.42
2022-09-11T04:07:27.297Z,348.67
2022-09-11T04:09:54.214Z,346.25
2022-09-11T04:12:20.797Z,355.50
2022-09-11T04:14:48.235Z,354.50
2022-09-11T04:17:17.152Z,359.65
2022-09-11T04:19:43.765Z,361.08
2022-09-11T04:22:10.502Z,350.70
2022-09-11T04:24:40.054Z,350.23
2022-09-11T04:27:06.810Z,352.30
2022-09-11T04:29:33.912Z,339.85
2022-09-11T04:32:01.463Z,336.88
2022-09-11T04:34:31.244Z,347.25
2022-09-11T04:36:57.904Z,341.27
2022-09-11T04:39:26.021Z,339.75
2022-09-11T04:41:52.648Z,340.70
2022-09-11T04:44:21.534Z,330.92
2022-09-11T04:46:48.144Z,327.88
2022-09-11T04:49:15.340Z,325.55
2022-09-11T04:51:45.180Z,329.05
2022-09-11T04:54:16.505Z,330.95
2022-09-11T04:56:43.301Z,336.60
2022-09-11T04:59:16.094Z,336.08
2022-09-11T05:01:48.775Z,330.48
2022-09-11T05:04:21.702Z,322.67
2022-09-11T05:06:51.117Z,329.70
2022-09-11T05:09:18.874Z,323.05
2022-09-11T05:11:47.145Z,326.38
2022-09-11T05:14:15.225Z,336.43
2022-09-11T05:16:44.994Z,330.88
2022-09-11T05:19:12.571Z,328.30
2022-09-11T05:21:39.801Z,325.88
2022-09-11T05:24:06.373Z,323.70
2022-09-11T05:26:36.850Z,324.55
2022-09-11T05:29:11.713Z,324.67
2022-09-11T05:31:44.822Z,325.40
2022-09-11T05:34:14.135Z,321.60
2022-09-11T05:36:41.456Z,329.25
2022-09-11T05:39:09.420Z,329.70
2022-09-11T05:41:36.883Z,323.27
2022-09-11T05:44:06.076Z,329.30
2022-09-11T05:46:36.934Z,326.58
2022-09-11T05:49:03.801Z,326.75
2022-09-11T05:51:30.466Z,331.35
2022-09-11T05:53:58.617Z,319.80
2022-09-11T05:56:26.498Z,323.70
2022-09-11T05:58:58.633Z,314.60
2022-09-11T06:01:33.375Z,313.05
2022-09-11T06:04:12.262Z,323.20
2022-09-11T06:06:41.443Z,315.27
2022-09-11T06:09:08.182Z,314.90
2022-09-11T06:11:35.058Z,325.42
2022-09-11T06:14:02.509Z,319.38
2022-09-11T06:16:31.435Z,326.57
2022-09-11T06:19:05.661Z,322.40
2022-09-11T06:21:32.327Z,332.38
2022-09-11T06:24:08.172Z,334.15
2022-09-11T06:26:35.463Z,328.50
2022-09-11T06:29:02.970Z,339.60
2022-09-11T06:31:30.451Z,343.77
2022-09-11T06:33:57.814Z,331.85
2022-09-11T06:36:32.710Z,336.23
2022-09-11T06:39:03.139Z,342.20
2022-09-11T06:41:30.805Z,331.00
2022-09-11T06:44:03.094Z,320.33
2022-09-11T06:46:30.922Z,313.58
2022-09-11T06:48:59.260Z,318.25
2022-09-11T06:51:28.163Z,315.90
2022-09-11T06:53:57.989Z,317.48
2022-09-11T06:56:28.189Z,303.35
2022-09-11T06:58:56.159Z,300.05
2022-09-11T07:01:30.788Z,302.27
2022-09-11T07:04:03.037Z,300.50
2022-09-11T07:06:32.392Z,308.97
2022-09-11T07:09:02.672Z,288.70
2022-09-11T07:11:44.823Z,277.58
2022-09-11T07:14:11.605Z,284.17
2022-09-11T07:16:41.166Z,286.77
2022-09-11T07:19:11.162Z,287.38
2022-09-11T07:21:41.838Z,276.58
2022-09-11T07:24:09.250Z,286.65
2022-09-11T07:26:39.809Z,277.52
2022-09-11T07:29:15.715Z,280.63
2022-09-11T07:31:52.402Z,269.95
2022-09-11T07:34:19.212Z,264.98
2022-09-11T07:36:51.726Z,252.77
2022-09-11T07:39:19.532Z,235.98
2022-09-11T07:41:55.587Z,245.32
2022-09-11T07:44:30.037Z,251.20
2022-09-11T07:46:57.686Z,253.13
2022-09-11T07:49:24.727Z,243.18
2022-09-11T07:51:52.738Z,240.27
2022-09-11T07:54:29.090Z,245.20
2022-09-11T07:57:07.988Z,234.32
2022-09-11T07:59:34.894Z,255.68
2022-09-11T08:02:03.013Z,230.32
2022-09-11T08:04:31.220Z,223.38
2022-09-11T08:06:57.955Z,222.70
2022-09-11T08:09:33.465Z,230.57
2022-09-11T08:12:03.729Z,213.27
2022-09-11T08:14:32.586Z,222.35
2022-09-11T08:17:08.621Z,235.10
2022-09-11T08:19:37.117Z,257.65
2022-09-11T08:22:04.007Z,252.90
2022-09-11T08:24:35.728Z,276.48
2022-09-11T08:27:06.075Z,270.05
2022-09-11T08:29:35.902Z,240.35
2022-09-11T08:32:02.673Z,238.88
2022-09-11T08:34:31.866Z,233.68
2022-09-11T08:36:58.810Z,245.85
2022-09-11T08:39:27.597Z,258.52
2022-09-11T08:42:06.003Z,246.20
2022-09-11T08:44:48.807Z,241.82
2022-09-11T08:47:31.178Z,230.07
2022-09-11T08:50:07.173Z,222.80
2022-09-11T08:52:35.945Z,216.30
2022-09-11T08:55:03.453Z,225.90
2022-09-11T08:57:33.493Z,232.82
2022-09-11T09:00:20.539Z,225.73
2022-09-11T09:03:30.539Z,218.90
2022-09-11T09:06:11.844Z,248.60
2022-09-11T09:09:08.786Z,271.95
2022-09-11T09:12:05.460Z,263.60
2022-09-11T09:15:17.164Z,250.70
2022-09-11T09:17:57.048Z,253.73
2022-09-11T09:20:33.822Z,233.05
2022-09-11T09:23:23.613Z,212.43
2022-09-11T09:25:57.137Z,209.32
2022-09-11T09:28:31.332Z,196.55
2022-09-11T09:31:07.977Z,213.18
2022-09-11T09:33:35.292Z,197.88
2022-09-11T09:36:16.759Z,194.40
2022-09-11T09:38:46.541Z,176.80
2022-09-11T09:41:22.758Z,200.43
2022-09-11T09:44:19.614Z,207.60
2022-09-11T09:46:54.163Z,212.52
2022-09-11T09:49:31.109Z,209.90
2022-09-11T09:52:04.060Z,262.65
2022-09-11T09:54:37.167Z,297.02
2022-09-11T09:57:07.760Z,307.73
2022-09-11T09:59:48.288Z,319.70
2022-09-11T10:02:39.477Z,308.65
2022-09-11T10:05:27.617Z,327.98
2022-09-11T10:07:57.734Z,309.50
2022-09-11T10:10:38.636Z,320.25
2022-09-11T10:13:25.003Z,310.83
2022-09-11T10:15:54.023Z,326.88
2022-09-11T10:18:33.183Z,325.33
2022-09-11T10:21:12.091Z,323.98
2022-09-11T10:24:01.780Z,302.17
2022-09-11T10:26:49.781Z,293.33
2022-09-11T10:29:24.280Z,296.38
2022-09-11T10:31:53.107Z,294.23
2022-09-11T10:34:22.310Z,275.27
2022-09-11T10:37:16.507Z,285.50
2022-09-11T10:39:47.054Z,266.08
2022-09-11T10:42:16.897Z,280.60
2022-09-11T10:44:49.207Z,296.80
2022-09-11T10:47:17.572Z,301.88
2022-09-11T10:49:45.084Z,297.13
2022-09-11T10:52:11.661Z,284.52
2022-09-11T10:54:54.099Z,273.83
2022-09-11T10:57:45.349Z,250.93
2022-09-11T11:00:22.670Z,249.77
2022-09-11T11:02:53.263Z,262.27
2022-09-11T11:05:31.878Z,275.85
2022-09-11T11:08:09.515Z,258.23
2022-09-11T11:11:03.748Z,260.52
2022-09-11T11:14:01.925Z,233.93
2022-09-11T11:16:48.687Z,186.77
2022-09-11T11:19:58.808Z,179.30
2022-09-11T11:22:28.678Z,194.65
2022-09-11T11:25:30.287Z,190.18
2022-09-11T11:28:20.251Z,181.57
2022-09-11T11:31:35.787Z,124.63
2022-09-11T11:34:15.676Z,22.38
2022-09-11T11:36:48.158Z,3.70
2022-09-11T11:39:23.193Z,2.90
2022-09-11T11:42:12.825Z,2.10
2022-09-11T11:44:44.700Z,2.25
2022-09-11T11:47:12.646Z,2.42
2022-09-11T11:50:06.717Z,2.10
2022-09-11T11:52:34.391Z,2.35
2022-09-11T11:55:18.123Z,2.20
2022-09-11T11:57:54.119Z,2.47
2022-09-11T12:00:21.503Z,2.55
2022-09-11T12:03:18.288Z,2.58
2022-09-11T12:05:44.942Z,2.53
2022-09-11T12:08:16.642Z,2.20
2022-09-11T12:10:55.979Z,2.67
2022-09-11T12:13:29.928Z,3.00
2022-09-11T12:16:14.935Z,2.60
2022-09-11T12:19:00.759Z,2.40
2022-09-11T12:21:32.539Z,2.53
2022-09-11T12:23:59.905Z,2.40
2022-09-11T12:26:32.138Z,2.40
2022-09-11T12:29:17.625Z,2.20
2022-09-11T12:32:18.954Z,2.40
2022-09-11T12:34:45.979Z,2.55
2022-09-11T12:37:26.025Z,2.50
2022-09-11T12:40:00.878Z,2.37
2022-09-11T12:42:30.402Z,2.15
2022-09-11T12:44:59.679Z,3.15
2022-09-11T12:47:42.630Z,2.50
2022-09-11T12:50:12.184Z,2.10
2022-09-11T12:52:46.486Z,2.28
2022-09-11T12:55:35.910Z,2.70
2022-09-11T12:58:07.432Z,3.15
2022-09-11T13:00:43.737Z,5.25
2022-09-11T13:03:21.501Z,3.10
2022-09-11T13:05:56.907Z,4.00
2022-09-11T13:08:27.888Z,3.10
2022-09-11T13:11:40.816Z,2.70
2022-09-11T13:14:28.090Z,3.60
2022-09-11T13:16:59.805Z,3.50
2022-09-11T13:19:37.100Z,3.28
2022-09-11T13:22:22.007Z,4.40
2022-09-11T13:24:51.478Z,4.45
2022-09-11T13:27:29.351Z,7.50
2022-09-11T13:29:58.159Z,5.03
2022-09-11T13:32:26.783Z,11.55
2022-09-11T13:35:01.968Z,5.32
2022-09-11T13:37:46.849Z,7.45
2022-09-11T13:40:27.551Z,7.57
2022-09-11T13:42:54.395Z,10.70
2022-09-11T13:45:28.625Z,4.35
2022-09-11T13:47:57.493Z,7.00
2022-09-11T13:50:32.268Z,20.15
2022-09-11T13:53:01.895Z,16.85
2022-09-11T13:55:30.122Z,29.40
2022-09-11T13:58:03.367Z,31.48
2022-09-11T14:00:44.980Z,34.65
2022-09-11T14:03:20.374Z,30.42
2022-09-11T14:05:53.936Z,13.37
2022-09-11T14:08:36.884Z,29.38
2022-09-11T14:11:21.254Z,28.23
2022-09-11T14:14:09.793Z,23.10
2022-09-11T14:16:47.970Z,10.23
2022-09-11T14:19:20.341Z,17.60
2022-09-11T14:21:51.307Z,15.38
2022-09-11T14:24:27.424Z,14.45
2022-09-11T14:26:58.228Z,13.82
2022-09-11T14:29:32.110Z,9.38
2022-09-11T14:32:36.998Z,16.98
2022-09-11T14:35:07.178Z,8.55
2022-09-11T14:37:40.247Z,25.98
2022-09-11T14:40:14.886Z,10.02
2022-09-11T14:42:42.952Z,21.40
2022-09-11T14:45:21.472Z,23.13
2022-09-11T14:47:49.692Z,24.48
2022-09-11T14:50:16.831Z,48.17
2022-09-11T14:52:46.777Z,79.15
2022-09-11T14:55:18.442Z,128.77
2022-09-11T14:57:51.408Z,153.50
2022-09-11T15:00:19.293Z,191.80
2022-09-11T15:02:46.509Z,215.05
2022-09-11T15:05:16.506Z,199.98
2022-09-11T15:07:45.485Z,228.05
2022-09-11T15:10:13.578Z,222.50
2022-09-11T15:12:40.217Z,224.25
2022-09-11T15:15:07.364Z,242.48
2022-09-11T15:17:36.274Z,253.82
2022-09-11T15:20:09.423Z,263.98
2022-09-11T15:22:38.288Z,235.57
2022-09-11T15:25:05.611Z,248.77
2022-09-11T15:27:32.318Z,234.37
2022-09-11T15:30:04.275Z,246.27
2022-09-11T15:32:31.415Z,234.52
2022-09-11T15:34:58.081Z,228.63
2022-09-11T15:37:25.424Z,222.15
2022-09-11T15:39:52.287Z,222.35
2022-09-11T15:42:19.323Z,215.73
2022-09-11T15:44:48.141Z,187.18
2022-09-11T15:47:14.830Z,177.15
2022-09-11T15:49:44.428Z,180.20
2022-09-11T15:52:11.288Z,172.88
2022-09-11T15:54:37.959Z,192.43
2022-09-11T15:57:04.540Z,211.32
2022-09-11T15:59:31.105Z,218.25
2022-09-11T16:01:59.154Z,223.40
2022-09-11T16:04:30.904Z,250.60
2022-09-11T16:06:57.452Z,255.60
2022-09-11T16:09:29.438Z,253.75
2022-09-11T16:11:56.910Z,256.92
2022-09-11T16:14:27.246Z,264.10
2022-09-11T16:16:58.407Z,246.88
2022-09-11T16:19:28.128Z,257.65
2022-09-11T16:22:00.766Z,258.13
2022-09-11T16:24:29.232Z,257.58
2022-09-11T16:26:56.111Z,253.13
2022-09-11T16:29:43.999Z,264.17
2022-09-11T16:32:28.080Z,254.13
2022-09-11T16:34:57.006Z,273.07
2022-09-11T16:37:23.978Z,273.30
2022-09-11T16:39:50.841Z,250.77
2022-09-11T16:42:21.729Z,242.48
2022-09-11T16:44:49.667Z,263.55
2022-09-11T16:47:16.813Z,230.70
2022-09-11T16:52:34.503Z,242.80
2022-09-11T16:55:01.534Z,223.95
2022-09-11T16:57:28.193Z,206.23
2022-09-11T16:59:54.872Z,224.23
2022-09-11T17:02:24.338Z,203.77
2022-09-11T17:04:51.016Z,205.48
2022-09-11T17:07:20.036Z,209.70
2022-09-11T17:09:49.195Z,218.13
2022-09-11T17:12:17.945Z,227.27
2022-09-11T17:14:46.462Z,226.27
2022-09-11T17:17:13.282Z,235.70
2022-09-11T17:19:42.935Z,248.45
2022-09-11T17:22:10.560Z,235.05
2022-09-11T17:24:38.754Z,267.17
2022-09-11T17:27:05.574Z,267.23
2022-09-11T17:29:44.587Z,262.13
2022-09-11T17:32:27.218Z,263.95
2022-09-11T17:34:55.063Z,255.10
2022-09-11T17:37:24.162Z,272.65
2022-09-11T17:39:50.778Z,280.10
2022-09-11T17:42:20.577Z,238.77
2022-09-11T17:44:47.894Z,256.33
2022-09-11T17:47:14.949Z,259.63
2022-09-11T17:49:42.956Z,247.57
2022-09-11T17:52:09.725Z,257.38
2022-09-11T17:54:39.588Z,258.75
2022-09-11T17:57:08.833Z,280.90
2022-09-11T17:59:39.204Z,266.50
2022-09-11T18:02:06.234Z,262.23
2022-09-11T18:04:32.993Z,269.20
2022-09-11T18:06:59.599Z,266.08
2022-09-11T18:09:26.241Z,266.98
2022-09-11T18:11:54.578Z,277.00
2022-09-11T18:14:21.582Z,254.50
2022-09-11T18:16:48.223Z,256.52
2022-09-11T18:19:16.313Z,273.02
2022-09-11T18:21:45.614Z,266.92
2022-09-11T18:24:19.887Z,269.30
2022-09-11T18:26:49.936Z,266.95
2022-09-11T18:29:19.970Z,245.05
2022-09-11T18:31:50.149Z,260.20
2022-09-11T18:34:22.600Z,251.50
2022-09-11T18:36:49.559Z,251.75
2022-09-11T18:39:17.989Z,271.38
2022-09-11T18:41:45.787Z,276.33
2022-09-11T18:44:19.273Z,282.80
2022-09-11T18:46:46.879Z,271.42
2022-09-11T18:49:15.146Z,271.95
2022-09-11T18:51:42.400Z,260.60
2022-09-11T18:54:18.221Z,270.15
2022-09-11T18:56:45.216Z,266.92
2022-09-11T18:59:12.890Z,271.92
2022-09-11T19:01:41.184Z,273.15
2022-09-11T19:04:10.357Z,271.65
2022-09-11T19:06:38.686Z,287.38
2022-09-11T19:09:07.471Z,298.77
2022-09-11T19:11:34.127Z,284.48
2022-09-11T19:14:07.121Z,289.40
2022-09-11T19:16:34.003Z,295.05
2022-09-11T19:19:00.638Z,277.38
2022-09-11T19:21:27.866Z,293.05
2022-09-11T19:24:00.330Z,271.33
2022-09-11T19:26:34.991Z,285.25
2022-09-11T19:29:01.891Z,265.15
2022-09-11T19:31:29.708Z,266.33
2022-09-11T19:33:57.915Z,261.58
2022-09-11T19:36:26.845Z,279.17
2022-09-11T19:38:55.940Z,292.83
2022-09-11T19:41:24.361Z,287.75
2022-09-11T19:43:50.978Z,299.38
2022-09-11T19:46:24.095Z,294.65
2022-09-11T19:48:53.377Z,284.92
2022-09-11T19:51:22.966Z,294.58
2022-09-11T19:53:51.138Z,295.20
2022-09-11T19:56:19.117Z,294.25
2022-09-11T19:58:45.690Z,295.48
2022-09-11T20:01:18.404Z,313.58
2022-09-11T20:03:46.121Z,325.23
2022-09-11T20:06:16.387Z,314.55
2022-09-11T20:08:45.491Z,313.77
2022-09-11T20:11:21.250Z,304.95
2022-09-11T20:13:48.422Z,310.63
2022-09-11T20:16:18.123Z,309.70
2022-09-11T20:18:45.028Z,313.17
2022-09-11T20:21:15.585Z,312.95
2022-09-11T20:23:44.164Z,300.83
2022-09-11T20:26:21.386Z,313.67
2022-09-11T20:28:53.486Z,310.30
2022-09-11T20:31:24.241Z,297.85
2022-09-11T20:33:54.138Z,312.27
2022-09-11T20:36:21.591Z,303.27
2022-09-11T20:38:52.513Z,297.55
2022-09-11T20:41:20.242Z,306.73
2022-09-11T20:43:47.058Z,303.88
2022-09-11T20:46:13.725Z,317.58
2022-09-11T20:48:40.638Z,316.48
2022-09-11T20:51:10.120Z,313.05
2022-09-11T20:53:38.416Z,320.35
2022-09-11T20:56:11.036Z,318.73
2022-09-11T20:58:38.750Z,336.40
2022-09-11T21:01:06.887Z,316.70
2022-09-11T21:03:33.578Z,322.80
2022-09-11T21:06:09.542Z,316.13
2022-09-11T21:08:36.404Z,324.63
2022-09-11T21:11:06.956Z,310.67
2022-09-11T21:13:38.627Z,322.25
2022-09-11T21:16:07.682Z,311.73
2022-09-11T21:18:34.882Z,314.23
2022-09-11T21:21:01.537Z,320.88
2022-09-11T21:23:28.287Z,335.98
2022-09-11T21:25:54.953Z,316.13
2022-09-11T21:28:22.006Z,318.60
2022-09-11T21:30:48.686Z,336.60
2022-09-11T21:33:15.318Z,336.83
2022-09-11T21:35:42.021Z,331.60
2022-09-11T21:38:08.783Z,353.00
2022-09-11T21:40:35.353Z,335.75
2022-09-11T21:43:03.105Z,328.58
2022-09-11T21:45:29.632Z,335.63
2022-09-11T21:47:57.558Z,338.88
2022-09-11T21:50:24.112Z,328.90
2022-09-11T21:52:50.708Z,318.52
2022-09-11T21:55:17.506Z,330.27
2022-09-11T21:57:44.597Z,326.98
2022-09-11T22:00:12.826Z,331.33
2022-09-11T22:02:42.266Z,330.03
2022-09-11T22:05:09.511Z,322.27
2022-09-11T22:07:36.446Z,326.63
2022-09-11T22:10:04.947Z,337.80
2022-09-11T22:12:31.607Z,343.00
2022-09-11T22:14:58.491Z,343.33
2022-09-11T22:17:25.075Z,344.02
2022-09-11T22:19:51.614Z,349.17
2022-09-11T22:22:18.569Z,330.10
2022-09-11T22:24:45.113Z,341.15
2022-09-11T22:27:11.746Z,357.45
2022-09-11T22:29:38.371Z,352.75
2022-09-11T22:32:05.870Z,355.50
2022-09-11T22:34:34.781Z,366.55
2022-09-11T22:37:08.959Z,369.88
2022-09-11T22:39:35.692Z,363.38
2022-09-11T22:42:04.447Z,356.77
2022-09-11T22:44:31.046Z,356.43
2022-09-11T22:46:57.651Z,365.75
2022-09-11T22:49:24.596Z,373.55
2022-09-11T22:51:51.268Z,379.33
2022-09-11T22:54:18.006Z,370.00
2022-09-11T22:56:44.781Z,370.30
2022-09-11T22:59:11.278Z,370.03
2022-09-11T23:01:38.155Z,381.63
2022-09-11T23:04:05.067Z,374.88
2022-09-11T23:06:50.051Z,367.05
2022-09-11T23:09:19.469Z,360.77
2022-09-11T23:11:46.700Z,361.92
2022-09-11T23:14:14.774Z,351.58
2022-09-11T23:16:42.655Z,353.27
2022-09-11T23:19:12.824Z,346.80
2022-09-11T23:21:39.461Z,335.08
2022-09-11T23:24:06.261Z,348.92
2022-09-11T23:26:32.865Z,348.58
2022-09-11T23:28:59.454Z,362.17
2022-09-11T23:31:30.461Z,354.83
2022-09-11T23:33:59.498Z,360.25
2022-09-11T23:36:26.686Z,359.33
2022-09-11T23:38:53.264Z,352.45
2022-09-11T23:41:20.474Z,357.17
2022-09-11T23:43:47.415Z,357.90
2022-09-11T23:46:15.258Z,357.50
2022-09-11T23:48:42.217Z,358.55
2022-09-11T23:51:10.388Z,353.13
2022-09-11T23:53:40.821Z,351.52
2022-09-11T23:56:07.785Z,361.65
2022-09-11T23:58:39.226Z,357.10
